sensor_id;sensor_type;location;lat;lon;timestamp;pressure;altitude;pressure_sealevel;temperature;humidity
11605;BME280;5858;43.076;25.626;2024-03-29T00:00:55;98852.47;;;12.68;76.41
11605;BME280;5858;43.076;25.626;2024-03-29T00:03:21;98919.38;;;13.03;76.72
11605;BME280;5858;43.076;25.626;2024-03-29T00:05:47;98923.09;;;13.02;76.95
11605;BME280;5858;43.076;25.626;2024-03-29T00:08:13;98785.00;;;12.18;76.67
11605;BME280;5858;43.076;25.626;2024-03-29T00:10:39;98926.59;;;12.96;77.29
11605;BME280;5858;43.076;25.626;2024-03-29T00:13:07;98858.69;;;12.55;77.76
11605;BME280;5858;43.076;25.626;2024-03-29T00:15:33;98890.66;;;12.70;78.07
11605;BME280;5858;43.076;25.626;2024-03-29T00:18:01;98920.84;;;12.79;79.07
11605;BME280;5858;43.076;25.626;2024-03-29T00:20:27;98906.97;;;12.69;78.09
11605;BME280;5858;43.076;25.626;2024-03-29T00:22:53;98883.41;;;12.18;81.33
11605;BME280;5858;43.076;25.626;2024-03-29T00:25:19;98926.59;;;12.49;80.39
11605;BME280;5858;43.076;25.626;2024-03-29T00:27:45;98925.75;;;12.42;81.43
11605;BME280;5858;43.076;25.626;2024-03-29T00:30:13;98768.38;;;11.35;81.26
11605;BME280;5858;43.076;25.626;2024-03-29T00:32:38;98937.94;;;12.45;81.44
11605;BME280;5858;43.076;25.626;2024-03-29T00:35:05;98929.22;;;12.29;81.94
11605;BME280;5858;43.076;25.626;2024-03-29T00:37:31;98877.81;;;12.06;82.05
11605;BME280;5858;43.076;25.626;2024-03-29T00:39:57;98844.34;;;11.82;81.18
11605;BME280;5858;43.076;25.626;2024-03-29T00:42:24;98847.06;;;11.89;81.33
11605;BME280;5858;43.076;25.626;2024-03-29T00:44:50;98820.59;;;11.73;80.96
11605;BME280;5858;43.076;25.626;2024-03-29T00:47:17;98927.81;;;12.34;81.69
11605;BME280;5858;43.076;25.626;2024-03-29T00:49:43;98832.97;;;11.74;81.84
11605;BME280;5858;43.076;25.626;2024-03-29T00:52:09;98835.22;;;11.77;81.64
11605;BME280;5858;43.076;25.626;2024-03-29T00:54:35;98938.56;;;12.34;81.81
11605;BME280;5858;43.076;25.626;2024-03-29T00:57:14;98914.94;;;12.03;82.59
11605;BME280;5858;43.076;25.626;2024-03-29T00:59:41;98931.06;;;12.22;82.31
11605;BME280;5858;43.076;25.626;2024-03-29T01:02:07;98895.09;;;11.84;82.55
11605;BME280;5858;43.076;25.626;2024-03-29T01:04:35;98938.47;;;12.01;83.84
11605;BME280;5858;43.076;25.626;2024-03-29T01:07:01;98934.94;;;11.93;84.07
11605;BME280;5858;43.076;25.626;2024-03-29T01:09:27;98932.91;;;12.02;84.07
11605;BME280;5858;43.076;25.626;2024-03-29T01:11:53;98937.03;;;12.05;83.26
11605;BME280;5858;43.076;25.626;2024-03-29T01:14:19;98918.63;;;11.88;83.79
11605;BME280;5858;43.076;25.626;2024-03-29T01:16:45;98866.28;;;11.45;83.72
11605;BME280;5858;43.076;25.626;2024-03-29T01:19:11;98945.25;;;11.96;83.54
11605;BME280;5858;43.076;25.626;2024-03-29T01:21:38;98915.84;;;11.75;83.59
11605;BME280;5858;43.076;25.626;2024-03-29T01:24:05;98871.22;;;11.48;83.59
11605;BME280;5858;43.076;25.626;2024-03-29T01:26:31;98814.25;;;11.26;83.62
11605;BME280;5858;43.076;25.626;2024-03-29T01:28:57;98905.31;;;11.74;83.96
11605;BME280;5858;43.076;25.626;2024-03-29T01:31:22;98892.47;;;11.49;84.67
11605;BME280;5858;43.076;25.626;2024-03-29T01:33:49;98837.44;;;11.06;84.63
11605;BME280;5858;43.076;25.626;2024-03-29T01:36:16;98947.38;;;11.73;84.71
11605;BME280;5858;43.076;25.626;2024-03-29T01:38:43;98901.97;;;11.58;84.05
11605;BME280;5858;43.076;25.626;2024-03-29T01:41:09;98963.19;;;11.89;84.14
11605;BME280;5858;43.076;25.626;2024-03-29T01:43:35;98971.81;;;11.85;84.32
11605;BME280;5858;43.076;25.626;2024-03-29T01:46:02;98903.28;;;11.34;84.25
11605;BME280;5858;43.076;25.626;2024-03-29T01:48:31;98916.88;;;11.33;84.22
11605;BME280;5858;43.076;25.626;2024-03-29T01:50:59;98922.09;;;11.41;84.29
11605;BME280;5858;43.076;25.626;2024-03-29T01:53:26;98982.28;;;11.80;84.51
11605;BME280;5858;43.076;25.626;2024-03-29T01:55:55;98940.66;;;11.43;84.18
11605;BME280;5858;43.076;25.626;2024-03-29T01:58:23;98906.69;;;11.15;84.32
11605;BME280;5858;43.076;25.626;2024-03-29T02:00:52;98996.03;;;11.70;84.31
11605;BME280;5858;43.076;25.626;2024-03-29T02:03:19;98990.22;;;11.60;84.56
11605;BME280;5858;43.076;25.626;2024-03-29T02:05:46;99008.81;;;11.68;84.29
11605;BME280;5858;43.076;25.626;2024-03-29T02:08:14;99014.28;;;11.53;84.84
11605;BME280;5858;43.076;25.626;2024-03-29T02:10:43;98982.81;;;11.34;84.70
11605;BME280;5858;43.076;25.626;2024-03-29T02:13:14;99020.41;;;11.41;85.42
11605;BME280;5858;43.076;25.626;2024-03-29T02:15:42;99024.19;;;11.53;85.27
11605;BME280;5858;43.076;25.626;2024-03-29T02:18:09;99018.38;;;11.49;85.44
11605;BME280;5858;43.076;25.626;2024-03-29T02:20:36;98993.28;;;11.29;85.53
11605;BME280;5858;43.076;25.626;2024-03-29T02:23:06;99014.13;;;11.33;85.26
11605;BME280;5858;43.076;25.626;2024-03-29T02:25:36;99033.19;;;11.45;85.53
11605;BME280;5858;43.076;25.626;2024-03-29T02:28:05;99006.44;;;11.24;85.68
11605;BME280;5858;43.076;25.626;2024-03-29T02:30:32;98924.31;;;10.75;85.47
11605;BME280;5858;43.076;25.626;2024-03-29T02:32:59;99047.94;;;11.34;86.14
11605;BME280;5858;43.076;25.626;2024-03-29T02:35:26;99037.28;;;11.13;87.14
11605;BME280;5858;43.076;25.626;2024-03-29T02:37:53;99082.75;;;11.34;86.90
11605;BME280;5858;43.076;25.626;2024-03-29T02:40:20;99065.13;;;11.19;87.48
11605;BME280;5858;43.076;25.626;2024-03-29T02:42:49;99034.09;;;11.03;87.42
11605;BME280;5858;43.076;25.626;2024-03-29T02:45:16;99042.56;;;11.07;87.56
11605;BME280;5858;43.076;25.626;2024-03-29T02:47:43;99078.31;;;11.20;88.55
11605;BME280;5858;43.076;25.626;2024-03-29T02:50:13;99076.59;;;11.13;88.72
11605;BME280;5858;43.076;25.626;2024-03-29T02:52:39;99094.53;;;11.12;88.72
11605;BME280;5858;43.076;25.626;2024-03-29T02:55:06;99074.66;;;11.00;88.76
11605;BME280;5858;43.076;25.626;2024-03-29T02:57:32;98986.94;;;10.38;89.01
11605;BME280;5858;43.076;25.626;2024-03-29T03:00:01;99087.97;;;10.93;90.02
11605;BME280;5858;43.076;25.626;2024-03-29T03:02:26;99020.97;;;10.44;90.21
11605;BME280;5858;43.076;25.626;2024-03-29T03:04:53;98933.94;;;9.91;90.69
11605;BME280;5858;43.076;25.626;2024-03-29T03:07:19;99094.00;;;10.81;91.59
11605;BME280;5858;43.076;25.626;2024-03-29T03:10:04;99095.28;;;10.85;91.26
11605;BME280;5858;43.076;25.626;2024-03-29T03:12:49;99084.50;;;10.78;90.39
11605;BME280;5858;43.076;25.626;2024-03-29T03:15:17;99116.84;;;10.98;90.04
11605;BME280;5858;43.076;25.626;2024-03-29T03:17:44;99108.94;;;10.90;90.14
11605;BME280;5858;43.076;25.626;2024-03-29T03:20:11;99095.84;;;10.80;89.74
11605;BME280;5858;43.076;25.626;2024-03-29T03:22:39;99135.84;;;11.03;90.06
11605;BME280;5858;43.076;25.626;2024-03-29T03:25:06;99076.41;;;10.71;89.84
11605;BME280;5858;43.076;25.626;2024-03-29T03:27:32;99110.91;;;11.02;89.26
11605;BME280;5858;43.076;25.626;2024-03-29T03:30:00;99082.84;;;10.77;89.69
11605;BME280;5858;43.076;25.626;2024-03-29T03:32:28;99109.66;;;10.98;89.29
11605;BME280;5858;43.076;25.626;2024-03-29T03:34:55;99135.91;;;11.10;90.28
11605;BME280;5858;43.076;25.626;2024-03-29T03:37:21;99110.19;;;10.72;90.92
11605;BME280;5858;43.076;25.626;2024-03-29T03:39:48;99121.84;;;10.65;90.67
11605;BME280;5858;43.076;25.626;2024-03-29T03:42:13;99110.34;;;10.35;92.21
11605;BME280;5858;43.076;25.626;2024-03-29T03:44:40;99154.41;;;10.39;93.34
11605;BME280;5858;43.076;25.626;2024-03-29T03:47:06;99150.91;;;10.53;92.61
11605;BME280;5858;43.076;25.626;2024-03-29T03:49:35;99161.97;;;10.65;91.39
11605;BME280;5858;43.076;25.626;2024-03-29T03:52:01;99155.38;;;10.46;91.98
11605;BME280;5858;43.076;25.626;2024-03-29T03:54:28;99043.63;;;9.83;92.27
11605;BME280;5858;43.076;25.626;2024-03-29T03:56:54;99172.13;;;10.55;92.32
11605;BME280;5858;43.076;25.626;2024-03-29T03:59:21;99115.03;;;10.18;92.51
11605;BME280;5858;43.076;25.626;2024-03-29T04:01:47;99153.91;;;10.44;91.88
11605;BME280;5858;43.076;25.626;2024-03-29T04:04:16;99116.25;;;10.16;92.17
11605;BME280;5858;43.076;25.626;2024-03-29T04:06:44;99155.63;;;10.36;91.90
11605;BME280;5858;43.076;25.626;2024-03-29T04:09:11;99174.34;;;10.51;92.09
11605;BME280;5858;43.076;25.626;2024-03-29T04:11:36;99193.63;;;10.61;92.18
11605;BME280;5858;43.076;25.626;2024-03-29T04:14:03;99170.78;;;10.44;92.59
11605;BME280;5858;43.076;25.626;2024-03-29T04:16:29;99212.69;;;10.73;91.66
11605;BME280;5858;43.076;25.626;2024-03-29T04:18:56;99185.97;;;10.58;91.40
11605;BME280;5858;43.076;25.626;2024-03-29T04:21:22;99117.44;;;10.13;91.12
11605;BME280;5858;43.076;25.626;2024-03-29T04:23:50;99216.47;;;10.79;91.39
11605;BME280;5858;43.076;25.626;2024-03-29T04:26:16;99117.63;;;10.12;91.38
11605;BME280;5858;43.076;25.626;2024-03-29T04:28:43;99156.56;;;10.44;90.73
11605;BME280;5858;43.076;25.626;2024-03-29T04:31:09;99229.47;;;10.96;90.49
11605;BME280;5858;43.076;25.626;2024-03-29T04:33:36;99168.16;;;10.65;89.46
11605;BME280;5858;43.076;25.626;2024-03-29T04:36:03;99240.97;;;11.12;88.93
11605;BME280;5858;43.076;25.626;2024-03-29T04:38:31;99234.53;;;11.06;89.56
11605;BME280;5858;43.076;25.626;2024-03-29T04:40:59;99159.59;;;10.55;88.89
11605;BME280;5858;43.076;25.626;2024-03-29T04:43:27;99219.34;;;10.92;88.51
11605;BME280;5858;43.076;25.626;2024-03-29T04:46:01;99245.13;;;11.14;89.24
11605;BME280;5858;43.076;25.626;2024-03-29T04:48:27;99256.75;;;11.21;88.97
11605;BME280;5858;43.076;25.626;2024-03-29T04:50:54;99264.19;;;11.26;88.70
11605;BME280;5858;43.076;25.626;2024-03-29T04:53:21;99209.25;;;10.94;87.96
11605;BME280;5858;43.076;25.626;2024-03-29T04:55:53;99205.00;;;10.99;87.90
11605;BME280;5858;43.076;25.626;2024-03-29T04:58:22;99284.84;;;11.47;87.68
11605;BME280;5858;43.076;25.626;2024-03-29T05:00:49;99254.09;;;11.43;86.60
11605;BME280;5858;43.076;25.626;2024-03-29T05:03:16;99203.03;;;11.08;86.68
11605;BME280;5858;43.076;25.626;2024-03-29T05:05:43;99283.38;;;11.65;86.01
11605;BME280;5858;43.076;25.626;2024-03-29T05:08:10;99244.28;;;11.50;84.99
11605;BME280;5858;43.076;25.626;2024-03-29T05:10:38;99189.78;;;11.21;84.74
11605;BME280;5858;43.076;25.626;2024-03-29T05:13:05;99233.63;;;11.56;84.39
11605;BME280;5858;43.076;25.626;2024-03-29T05:15:34;99216.78;;;11.62;83.30
11605;BME280;5858;43.076;25.626;2024-03-29T05:18:01;99253.41;;;11.98;82.67
11605;BME280;5858;43.076;25.626;2024-03-29T05:20:29;99266.28;;;12.09;83.17
11605;BME280;5858;43.076;25.626;2024-03-29T05:22:56;99271.44;;;12.32;81.77
11605;BME280;5858;43.076;25.626;2024-03-29T05:25:22;99236.09;;;12.28;81.75
11605;BME280;5858;43.076;25.626;2024-03-29T05:27:49;99244.75;;;12.58;78.67
11605;BME280;5858;43.076;25.626;2024-03-29T05:30:16;99290.63;;;12.98;77.75
11605;BME280;5858;43.076;25.626;2024-03-29T05:32:45;99238.94;;;12.89;76.09
11605;BME280;5858;43.076;25.626;2024-03-29T05:35:12;99314.25;;;13.64;75.04
11605;BME280;5858;43.076;25.626;2024-03-29T05:37:39;99295.06;;;13.73;74.33
11605;BME280;5858;43.076;25.626;2024-03-29T05:40:07;99290.94;;;13.97;72.09
11605;BME280;5858;43.076;25.626;2024-03-29T05:42:34;99312.72;;;14.35;70.56
11605;BME280;5858;43.076;25.626;2024-03-29T05:45:04;99307.13;;;14.50;69.97
11605;BME280;5858;43.076;25.626;2024-03-29T05:47:33;99327.38;;;14.92;67.46
11605;BME280;5858;43.076;25.626;2024-03-29T05:50:02;99328.09;;;15.26;65.82
11605;BME280;5858;43.076;25.626;2024-03-29T05:52:29;99333.81;;;15.49;63.36
11605;BME280;5858;43.076;25.626;2024-03-29T05:55:25;99342.34;;;15.91;61.51
11605;BME280;5858;43.076;25.626;2024-03-29T05:58:46;99306.53;;;16.09;59.56
11605;BME280;5858;43.076;25.626;2024-03-29T06:04:47;99259.59;;;16.78;54.99
11605;BME280;5858;43.076;25.626;2024-03-29T06:10:31;99294.91;;;17.98;50.92
11605;BME280;5858;43.076;25.626;2024-03-29T06:13:01;99351.34;;;18.66;50.50
11605;BME280;5858;43.076;25.626;2024-03-29T06:15:33;99208.03;;;18.11;49.76
11605;BME280;5858;43.076;25.626;2024-03-29T06:18:41;99292.38;;;18.61;48.15
11605;BME280;5858;43.076;25.626;2024-03-29T06:21:08;99357.56;;;19.13;49.06
11605;BME280;5858;43.076;25.626;2024-03-29T06:23:38;99355.91;;;19.24;48.13
11605;BME280;5858;43.076;25.626;2024-03-29T06:26:14;99367.56;;;19.24;47.82
11605;BME280;5858;43.076;25.626;2024-03-29T06:28:46;99220.28;;;18.25;48.01
11605;BME280;5858;43.076;25.626;2024-03-29T06:31:34;99312.78;;;18.87;47.30
11605;BME280;5858;43.076;25.626;2024-03-29T06:34:01;99215.22;;;18.17;46.75
11605;BME280;5858;43.076;25.626;2024-03-29T06:36:30;99344.63;;;19.03;46.63
11605;BME280;5858;43.076;25.626;2024-03-29T06:38:57;99349.31;;;19.19;47.63
11605;BME280;5858;43.076;25.626;2024-03-29T06:41:25;99333.34;;;18.41;48.36
11605;BME280;5858;43.076;25.626;2024-03-29T06:43:52;99372.03;;;18.60;48.92
11605;BME280;5858;43.076;25.626;2024-03-29T06:46:19;99332.28;;;18.42;47.45
11605;BME280;5858;43.076;25.626;2024-03-29T06:48:46;99361.59;;;18.75;47.67
11605;BME280;5858;43.076;25.626;2024-03-29T06:51:14;99371.84;;;18.85;47.87
11605;BME280;5858;43.076;25.626;2024-03-29T06:53:53;99347.44;;;18.73;48.19
11605;BME280;5858;43.076;25.626;2024-03-29T06:56:20;99264.56;;;18.31;48.66
11605;BME280;5858;43.076;25.626;2024-03-29T06:58:50;99370.56;;;19.11;46.59
11605;BME280;5858;43.076;25.626;2024-03-29T07:01:17;99345.81;;;18.96;47.67
11605;BME280;5858;43.076;25.626;2024-03-29T07:03:44;99374.66;;;18.90;45.78
11605;BME280;5858;43.076;25.626;2024-03-29T07:06:13;99354.75;;;18.84;48.56
11605;BME280;5858;43.076;25.626;2024-03-29T07:08:40;99382.22;;;19.11;47.89
11605;BME280;5858;43.076;25.626;2024-03-29T07:11:07;99385.97;;;19.22;46.55
11605;BME280;5858;43.076;25.626;2024-03-29T07:13:35;99318.53;;;18.91;46.50
11605;BME280;5858;43.076;25.626;2024-03-29T07:16:04;99386.47;;;19.19;45.40
11605;BME280;5858;43.076;25.626;2024-03-29T07:18:32;99358.28;;;19.08;45.31
11605;BME280;5858;43.076;25.626;2024-03-29T07:20:59;99324.34;;;19.06;45.57
11605;BME280;5858;43.076;25.626;2024-03-29T07:23:26;99367.44;;;19.31;44.32
11605;BME280;5858;43.076;25.626;2024-03-29T07:26:00;99370.63;;;19.39;44.35
11605;BME280;5858;43.076;25.626;2024-03-29T07:28:28;99323.38;;;19.12;44.26
11605;BME280;5858;43.076;25.626;2024-03-29T07:30:55;99362.25;;;19.53;44.39
11605;BME280;5858;43.076;25.626;2024-03-29T07:33:25;99358.53;;;19.70;44.10
11605;BME280;5858;43.076;25.626;2024-03-29T07:36:06;99342.31;;;19.47;43.36
11605;BME280;5858;43.076;25.626;2024-03-29T07:38:37;99336.41;;;19.38;43.46
11605;BME280;5858;43.076;25.626;2024-03-29T07:41:05;99306.78;;;19.37;42.62
11605;BME280;5858;43.076;25.626;2024-03-29T07:43:38;99319.84;;;19.63;42.73
11605;BME280;5858;43.076;25.626;2024-03-29T07:46:05;99319.94;;;19.68;43.08
11605;BME280;5858;43.076;25.626;2024-03-29T07:48:35;99382.06;;;20.22;43.83
11605;BME280;5858;43.076;25.626;2024-03-29T07:51:02;99376.47;;;20.28;42.39
11605;BME280;5858;43.076;25.626;2024-03-29T07:53:29;99362.78;;;20.23;41.74
11605;BME280;5858;43.076;25.626;2024-03-29T07:55:56;99233.72;;;19.59;42.39
11605;BME280;5858;43.076;25.626;2024-03-29T07:58:23;99327.97;;;20.37;43.67
11605;BME280;5858;43.076;25.626;2024-03-29T08:00:52;99366.97;;;20.76;40.63
11605;BME280;5858;43.076;25.626;2024-03-29T08:03:20;99313.84;;;20.52;41.18
11605;BME280;5858;43.076;25.626;2024-03-29T08:05:57;99350.13;;;20.96;41.13
11605;BME280;5858;43.076;25.626;2024-03-29T08:08:24;99374.09;;;21.16;40.81
11605;BME280;5858;43.076;25.626;2024-03-29T08:10:53;99371.19;;;21.22;38.89
11605;BME280;5858;43.076;25.626;2024-03-29T08:13:20;99362.94;;;21.17;38.56
11605;BME280;5858;43.076;25.626;2024-03-29T08:15:48;99371.75;;;21.41;37.45
11605;BME280;5858;43.076;25.626;2024-03-29T08:18:14;99333.16;;;21.27;36.69
11605;BME280;5858;43.076;25.626;2024-03-29T08:20:42;99376.06;;;21.59;35.81
11605;BME280;5858;43.076;25.626;2024-03-29T08:23:10;99337.75;;;21.44;35.42
11605;BME280;5858;43.076;25.626;2024-03-29T08:25:37;99345.72;;;21.50;35.11
11605;BME280;5858;43.076;25.626;2024-03-29T08:28:07;99236.50;;;20.81;35.42
11605;BME280;5858;43.076;25.626;2024-03-29T08:30:34;99305.38;;;21.25;34.64
11605;BME280;5858;43.076;25.626;2024-03-29T08:33:01;99376.88;;;21.81;35.53
11605;BME280;5858;43.076;25.626;2024-03-29T08:35:29;99357.03;;;21.86;35.15
11605;BME280;5858;43.076;25.626;2024-03-29T08:37:56;99361.53;;;21.97;34.85
11605;BME280;5858;43.076;25.626;2024-03-29T08:40:26;99365.63;;;21.99;35.84
11605;BME280;5858;43.076;25.626;2024-03-29T08:42:54;99327.94;;;21.91;34.40
11605;BME280;5858;43.076;25.626;2024-03-29T08:45:21;99290.25;;;21.56;34.27
11605;BME280;5858;43.076;25.626;2024-03-29T08:47:48;99270.41;;;21.61;34.68
11605;BME280;5858;43.076;25.626;2024-03-29T08:50:15;99269.34;;;21.89;33.66
11605;BME280;5858;43.076;25.626;2024-03-29T08:52:43;99306.88;;;22.09;34.17
11605;BME280;5858;43.076;25.626;2024-03-29T08:55:11;99330.03;;;22.33;33.60
11605;BME280;5858;43.076;25.626;2024-03-29T08:57:39;99361.91;;;22.65;33.30
11605;BME280;5858;43.076;25.626;2024-03-29T09:00:08;99287.84;;;22.14;32.59
11605;BME280;5858;43.076;25.626;2024-03-29T09:02:35;99347.91;;;22.56;32.81
11605;BME280;5858;43.076;25.626;2024-03-29T09:05:03;99252.97;;;22.16;32.82
11605;BME280;5858;43.076;25.626;2024-03-29T09:07:29;99285.88;;;22.36;32.63
11605;BME280;5858;43.076;25.626;2024-03-29T09:09:56;99347.13;;;22.92;31.18
11605;BME280;5858;43.076;25.626;2024-03-29T09:12:25;99346.66;;;23.06;30.89
11605;BME280;5858;43.076;25.626;2024-03-29T09:14:54;99272.59;;;22.50;30.87
11605;BME280;5858;43.076;25.626;2024-03-29T09:17:21;99281.69;;;22.66;30.67
11605;BME280;5858;43.076;25.626;2024-03-29T09:19:50;99289.78;;;22.82;29.80
11605;BME280;5858;43.076;25.626;2024-03-29T09:22:18;99354.34;;;23.14;29.13
11605;BME280;5858;43.076;25.626;2024-03-29T09:24:45;99348.41;;;23.22;30.89
11605;BME280;5858;43.076;25.626;2024-03-29T09:27:12;99343.38;;;23.04;30.56
11605;BME280;5858;43.076;25.626;2024-03-29T09:29:39;99325.06;;;22.99;29.01
11605;BME280;5858;43.076;25.626;2024-03-29T09:32:07;99273.06;;;22.79;28.05
11605;BME280;5858;43.076;25.626;2024-03-29T09:34:34;99224.66;;;22.59;28.98
11605;BME280;5858;43.076;25.626;2024-03-29T09:37:01;99333.88;;;23.11;30.42
11605;BME280;5858;43.076;25.626;2024-03-29T09:39:29;99353.41;;;23.40;30.68
11605;BME280;5858;43.076;25.626;2024-03-29T09:41:58;99268.59;;;23.05;29.23
11605;BME280;5858;43.076;25.626;2024-03-29T09:44:31;99228.09;;;22.81;29.14
11605;BME280;5858;43.076;25.626;2024-03-29T09:47:02;99319.28;;;23.48;29.77
11605;BME280;5858;43.076;25.626;2024-03-29T09:49:31;99325.59;;;23.53;30.19
11605;BME280;5858;43.076;25.626;2024-03-29T09:51:59;99331.88;;;23.54;29.62
11605;BME280;5858;43.076;25.626;2024-03-29T09:54:27;99271.91;;;23.12;29.67
11605;BME280;5858;43.076;25.626;2024-03-29T09:56:55;99317.38;;;23.43;30.49
11605;BME280;5858;43.076;25.626;2024-03-29T09:59:22;99322.91;;;23.59;30.10
11605;BME280;5858;43.076;25.626;2024-03-29T10:01:50;99254.69;;;23.06;29.99
11605;BME280;5858;43.076;25.626;2024-03-29T10:04:18;99316.03;;;23.51;30.11
11605;BME280;5858;43.076;25.626;2024-03-29T10:06:48;99252.97;;;22.90;29.96
11605;BME280;5858;43.076;25.626;2024-03-29T10:09:17;99331.06;;;23.53;30.25
11605;BME280;5858;43.076;25.626;2024-03-29T10:11:44;99325.38;;;23.60;30.09
11605;BME280;5858;43.076;25.626;2024-03-29T10:14:12;99319.97;;;23.70;29.89
11605;BME280;5858;43.076;25.626;2024-03-29T10:16:39;99319.16;;;23.75;29.70
11605;BME280;5858;43.076;25.626;2024-03-29T10:19:07;99263.81;;;23.37;30.15
11605;BME280;5858;43.076;25.626;2024-03-29T10:21:35;99324.09;;;23.83;29.72
11605;BME280;5858;43.076;25.626;2024-03-29T10:24:12;99298.66;;;23.67;29.44
11605;BME280;5858;43.076;25.626;2024-03-29T10:26:40;99312.34;;;23.77;29.51
11605;BME280;5858;43.076;25.626;2024-03-29T10:29:08;99318.63;;;23.88;29.38
11605;BME280;5858;43.076;25.626;2024-03-29T10:31:37;99322.19;;;23.89;29.22
11605;BME280;5858;43.076;25.626;2024-03-29T10:34:04;99300.47;;;23.51;28.78
11605;BME280;5858;43.076;25.626;2024-03-29T10:36:36;99327.84;;;23.62;29.35
11605;BME280;5858;43.076;25.626;2024-03-29T10:39:09;99323.72;;;23.59;29.11
11605;BME280;5858;43.076;25.626;2024-03-29T10:41:40;99223.59;;;23.17;29.33
11605;BME280;5858;43.076;25.626;2024-03-29T10:44:09;99226.63;;;23.21;29.35
11605;BME280;5858;43.076;25.626;2024-03-29T10:46:37;99184.22;;;22.98;28.83
11605;BME280;5858;43.076;25.626;2024-03-29T10:49:07;99275.97;;;23.72;28.73
11605;BME280;5858;43.076;25.626;2024-03-29T10:51:37;99227.81;;;23.50;28.89
11605;BME280;5858;43.076;25.626;2024-03-29T10:54:05;99271.63;;;23.91;29.22
11605;BME280;5858;43.076;25.626;2024-03-29T10:56:34;99209.50;;;23.46;28.99
11605;BME280;5858;43.076;25.626;2024-03-29T10:59:08;99256.25;;;23.60;28.75
11605;BME280;5858;43.076;25.626;2024-03-29T11:01:41;99196.09;;;23.39;28.86
11605;BME280;5858;43.076;25.626;2024-03-29T11:04:15;99237.41;;;23.58;28.76
11605;BME280;5858;43.076;25.626;2024-03-29T11:06:44;99260.69;;;23.71;28.86
11605;BME280;5858;43.076;25.626;2024-03-29T11:09:14;99279.56;;;23.98;28.48
11605;BME280;5858;43.076;25.626;2024-03-29T11:11:44;99221.78;;;23.38;28.13
11605;BME280;5858;43.076;25.626;2024-03-29T11:14:19;99204.56;;;23.43;28.47
11605;BME280;5858;43.076;25.626;2024-03-29T11:16:47;99268.91;;;23.91;28.60
11605;BME280;5858;43.076;25.626;2024-03-29T11:19:16;99252.22;;;23.98;28.83
11605;BME280;5858;43.076;25.626;2024-03-29T11:21:44;99298.22;;;24.36;28.99
11605;BME280;5858;43.076;25.626;2024-03-29T11:24:16;99268.66;;;24.23;28.28
11605;BME280;5858;43.076;25.626;2024-03-29T11:26:45;99288.88;;;24.17;28.74
11605;BME280;5858;43.076;25.626;2024-03-29T11:29:19;99256.59;;;23.89;28.55
11605;BME280;5858;43.076;25.626;2024-03-29T11:31:56;99291.59;;;23.92;29.40
11605;BME280;5858;43.076;25.626;2024-03-29T11:34:23;99224.53;;;23.53;29.00
11605;BME280;5858;43.076;25.626;2024-03-29T11:36:50;99192.06;;;23.57;29.58
11605;BME280;5858;43.076;25.626;2024-03-29T11:39:21;99167.19;;;23.64;28.98
11605;BME280;5858;43.076;25.626;2024-03-29T11:41:49;99257.16;;;24.06;28.23
11605;BME280;5858;43.076;25.626;2024-03-29T11:44:16;99188.19;;;23.53;28.70
11605;BME280;5858;43.076;25.626;2024-03-29T11:46:45;99287.22;;;24.01;28.61
11605;BME280;5858;43.076;25.626;2024-03-29T11:49:13;99290.25;;;24.25;29.18
11605;BME280;5858;43.076;25.626;2024-03-29T11:51:41;99186.09;;;23.70;29.12
11605;BME280;5858;43.076;25.626;2024-03-29T11:54:08;99204.38;;;23.80;28.56
11605;BME280;5858;43.076;25.626;2024-03-29T11:56:36;99231.44;;;23.97;28.75
11605;BME280;5858;43.076;25.626;2024-03-29T11:59:03;99288.63;;;24.34;29.65
11605;BME280;5858;43.076;25.626;2024-03-29T12:01:31;99266.97;;;24.12;28.98
11605;BME280;5858;43.076;25.626;2024-03-29T12:04:00;99265.38;;;24.16;28.94
11605;BME280;5858;43.076;25.626;2024-03-29T12:06:28;99261.00;;;24.25;28.53
11605;BME280;5858;43.076;25.626;2024-03-29T12:08:55;99229.81;;;24.11;29.23
11605;BME280;5858;43.076;25.626;2024-03-29T12:11:23;99262.38;;;24.38;28.83
11605;BME280;5858;43.076;25.626;2024-03-29T12:13:51;99222.19;;;24.13;29.00
11605;BME280;5858;43.076;25.626;2024-03-29T12:16:18;99275.22;;;24.47;29.35
11605;BME280;5858;43.076;25.626;2024-03-29T12:18:47;99283.69;;;24.71;29.38
11605;BME280;5858;43.076;25.626;2024-03-29T12:21:18;99294.91;;;24.70;28.98
11605;BME280;5858;43.076;25.626;2024-03-29T12:23:48;99195.34;;;24.10;29.30
11605;BME280;5858;43.076;25.626;2024-03-29T12:26:16;99293.81;;;24.71;29.62
11605;BME280;5858;43.076;25.626;2024-03-29T12:28:48;99254.16;;;24.53;29.53
11605;BME280;5858;43.076;25.626;2024-03-29T12:31:15;99278.44;;;24.85;29.39
11605;BME280;5858;43.076;25.626;2024-03-29T12:33:51;99253.03;;;24.59;29.21
11605;BME280;5858;43.076;25.626;2024-03-29T12:36:23;99192.06;;;24.38;29.38
11605;BME280;5858;43.076;25.626;2024-03-29T12:38:54;99286.69;;;24.80;29.40
11605;BME280;5858;43.076;25.626;2024-03-29T12:41:24;99227.88;;;24.57;29.42
11605;BME280;5858;43.076;25.626;2024-03-29T12:43:51;99275.72;;;24.80;29.20
11605;BME280;5858;43.076;25.626;2024-03-29T12:46:18;99232.25;;;24.53;29.37
11605;BME280;5858;43.076;25.626;2024-03-29T12:48:45;99263.44;;;24.72;29.84
11605;BME280;5858;43.076;25.626;2024-03-29T12:51:12;99179.50;;;24.37;28.91
11605;BME280;5858;43.076;25.626;2024-03-29T12:53:47;99142.84;;;24.23;29.21
11605;BME280;5858;43.076;25.626;2024-03-29T12:56:16;99254.06;;;24.99;29.78
11605;BME280;5858;43.076;25.626;2024-03-29T12:58:43;99248.03;;;25.02;29.39
11605;BME280;5858;43.076;25.626;2024-03-29T13:01:10;99221.88;;;24.50;29.72
11605;BME280;5858;43.076;25.626;2024-03-29T13:03:37;99249.47;;;24.69;30.12
11605;BME280;5858;43.076;25.626;2024-03-29T13:06:08;99192.38;;;24.16;29.57
11605;BME280;5858;43.076;25.626;2024-03-29T13:08:35;99233.66;;;24.40;30.23
11605;BME280;5858;43.076;25.626;2024-03-29T13:11:05;99249.22;;;24.55;30.18
11605;BME280;5858;43.076;25.626;2024-03-29T13:13:32;99188.81;;;24.36;29.94